sensor_id;sensor_type;location;lat;lon;timestamp;P1;durP1;ratioP1;P2;durP2;ratioP2
5195;SDS011;2617;51.006;12.436;2022-07-23T00:03:44;6.55;;;5.95;;
5195;SDS011;2617;51.006;12.436;2022-07-23T00:08:46;6.43;;;5.77;;
5195;SDS011;2617;51.006;12.436;2022-07-23T00:13:49;6.20;;;5.60;;
5195;SDS011;2617;51.006;12.436;2022-07-23T00:18:52;6.67;;;5.97;;
5195;SDS011;2617;51.006;12.436;2022-07-23T00:23:54;8.53;;;6.20;;
5195;SDS011;2617;51.006;12.436;2022-07-23T00:28:56;6.50;;;5.83;;
5195;SDS011;2617;51.006;12.436;2022-07-23T00:33:59;6.97;;;6.13;;
5195;SDS011;2617;51.006;12.436;2022-07-23T00:39:02;8.20;;;6.13;;
5195;SDS011;2617;51.006;12.436;2022-07-23T00:49:18;7.57;;;6.77;;
5195;SDS011;2617;51.006;12.436;2022-07-23T00:54:22;9.73;;;6.60;;
5195;SDS011;2617;51.006;12.436;2022-07-23T00:59:25;7.50;;;6.70;;
5195;SDS011;2617;51.006;12.436;2022-07-23T01:04:27;7.53;;;5.90;;
5195;SDS011;2617;51.006;12.436;2022-07-23T01:09:30;6.60;;;6.00;;
5195;SDS011;2617;51.006;12.436;2022-07-23T01:14:33;9.50;;;6.73;;
5195;SDS011;2617;51.006;12.436;2022-07-23T01:19:35;7.93;;;6.63;;
5195;SDS011;2617;51.006;12.436;2022-07-23T01:24:37;9.40;;;6.77;;
5195;SDS011;2617;51.006;12.436;2022-07-23T01:29:40;6.43;;;5.70;;
5195;SDS011;2617;51.006;12.436;2022-07-23T01:34:43;8.53;;;6.70;;
5195;SDS011;2617;51.006;12.436;2022-07-23T01:39:46;6.80;;;6.10;;
5195;SDS011;2617;51.006;12.436;2022-07-23T01:44:48;8.20;;;7.07;;
5195;SDS011;2617;51.006;12.436;2022-07-23T01:49:50;9.00;;;6.87;;
5195;SDS011;2617;51.006;12.436;2022-07-23T01:54:53;6.57;;;5.93;;
5195;SDS011;2617;51.006;12.436;2022-07-23T01:59:56;8.50;;;6.97;;
5195;SDS011;2617;51.006;12.436;2022-07-23T02:04:58;7.20;;;6.23;;
5195;SDS011;2617;51.006;12.436;2022-07-23T02:10:01;7.73;;;6.93;;
5195;SDS011;2617;51.006;12.436;2022-07-23T02:15:04;7.57;;;6.57;;
5195;SDS011;2617;51.006;12.436;2022-07-23T02:20:08;7.13;;;6.43;;
5195;SDS011;2617;51.006;12.436;2022-07-23T02:25:12;8.10;;;6.80;;
5195;SDS011;2617;51.006;12.436;2022-07-23T02:30:15;8.20;;;7.07;;
5195;SDS011;2617;51.006;12.436;2022-07-23T02:35:18;8.53;;;7.00;;
5195;SDS011;2617;51.006;12.436;2022-07-23T02:40:20;8.80;;;7.20;;
5195;SDS011;2617;51.006;12.436;2022-07-23T02:45:23;8.93;;;6.53;;
5195;SDS011;2617;51.006;12.436;2022-07-23T02:50:26;7.20;;;6.50;;
5195;SDS011;2617;51.006;12.436;2022-07-23T02:55:28;6.47;;;5.77;;
5195;SDS011;2617;51.006;12.436;2022-07-23T03:00:31;6.20;;;5.60;;
5195;SDS011;2617;51.006;12.436;2022-07-23T03:05:34;6.40;;;5.70;;
5195;SDS011;2617;51.006;12.436;2022-07-23T03:10:36;6.07;;;5.50;;
5195;SDS011;2617;51.006;12.436;2022-07-23T03:15:38;15.00;;;5.73;;
5195;SDS011;2617;51.006;12.436;2022-07-23T03:20:41;7.60;;;6.40;;
5195;SDS011;2617;51.006;12.436;2022-07-23T03:25:44;6.67;;;5.70;;
5195;SDS011;2617;51.006;12.436;2022-07-23T03:30:47;10.38;;;6.70;;
5195;SDS011;2617;51.006;12.436;2022-07-23T03:35:49;10.03;;;7.53;;
5195;SDS011;2617;51.006;12.436;2022-07-23T03:40:52;8.90;;;6.37;;
5195;SDS011;2617;51.006;12.436;2022-07-23T03:45:55;9.30;;;6.67;;
5195;SDS011;2617;51.006;12.436;2022-07-23T03:50:57;9.17;;;7.10;;
5195;SDS011;2617;51.006;12.436;2022-07-23T03:56:00;8.97;;;7.03;;
5195;SDS011;2617;51.006;12.436;2022-07-23T04:01:03;8.37;;;6.47;;
5195;SDS011;2617;51.006;12.436;2022-07-23T04:06:06;8.50;;;7.10;;
5195;SDS011;2617;51.006;12.436;2022-07-23T04:11:08;7.83;;;6.40;;
5195;SDS011;2617;51.006;12.436;2022-07-23T04:16:10;9.10;;;7.20;;
5195;SDS011;2617;51.006;12.436;2022-07-23T04:21:13;7.13;;;6.50;;
5195;SDS011;2617;51.006;12.436;2022-07-23T04:26:15;7.53;;;6.73;;
5195;SDS011;2617;51.006;12.436;2022-07-23T04:31:18;8.33;;;6.93;;
5195;SDS011;2617;51.006;12.436;2022-07-23T04:36:21;8.55;;;7.35;;
5195;SDS011;2617;51.006;12.436;2022-07-23T04:41:23;11.80;;;8.23;;
5195;SDS011;2617;51.006;12.436;2022-07-23T04:46:26;19.07;;;7.23;;
5195;SDS011;2617;51.006;12.436;2022-07-23T04:51:28;9.67;;;7.30;;
5195;SDS011;2617;51.006;12.436;2022-07-23T04:56:31;9.27;;;8.30;;
5195;SDS011;2617;51.006;12.436;2022-07-23T05:01:33;11.47;;;7.93;;
5195;SDS011;2617;51.006;12.436;2022-07-23T05:06:35;8.57;;;7.70;;
5195;SDS011;2617;51.006;12.436;2022-07-23T05:11:38;9.47;;;7.53;;
5195;SDS011;2617;51.006;12.436;2022-07-23T05:16:41;13.70;;;8.23;;
5195;SDS011;2617;51.006;12.436;2022-07-23T05:21:44;8.43;;;7.10;;
5195;SDS011;2617;51.006;12.436;2022-07-23T05:26:46;8.37;;;7.00;;
5195;SDS011;2617;51.006;12.436;2022-07-23T05:31:49;9.30;;;6.97;;
5195;SDS011;2617;51.006;12.436;2022-07-23T05:36:52;7.17;;;5.53;;
5195;SDS011;2617;51.006;12.436;2022-07-23T05:41:54;15.90;;;7.70;;
5195;SDS011;2617;51.006;12.436;2022-07-23T05:46:57;10.70;;;6.10;;
5195;SDS011;2617;51.006;12.436;2022-07-23T05:52:03;8.00;;;5.60;;
5195;SDS011;2617;51.006;12.436;2022-07-23T05:57:02;9.60;;;6.00;;
5195;SDS011;2617;51.006;12.436;2022-07-23T06:02:05;9.30;;;6.63;;
5195;SDS011;2617;51.006;12.436;2022-07-23T06:07:08;8.17;;;5.73;;
5195;SDS011;2617;51.006;12.436;2022-07-23T06:12:10;7.23;;;6.13;;
5195;SDS011;2617;51.006;12.436;2022-07-23T06:17:13;6.65;;;5.97;;
5195;SDS011;2617;51.006;12.436;2022-07-23T06:22:16;7.03;;;5.83;;
5195;SDS011;2617;51.006;12.436;2022-07-23T06:27:18;5.57;;;4.90;;
5195;SDS011;2617;51.006;12.436;2022-07-23T06:32:21;7.33;;;5.30;;
5195;SDS011;2617;51.006;12.436;2022-07-23T06:37:24;7.07;;;5.37;;
5195;SDS011;2617;51.006;12.436;2022-07-23T06:42:26;22.47;;;6.07;;
5195;SDS011;2617;51.006;12.436;2022-07-23T06:47:29;8.13;;;5.13;;
5195;SDS011;2617;51.006;12.436;2022-07-23T06:52:31;6.73;;;5.70;;
5195;SDS011;2617;51.006;12.436;2022-07-23T06:57:33;7.57;;;6.00;;
5195;SDS011;2617;51.006;12.436;2022-07-23T07:02:36;8.10;;;5.83;;
5195;SDS011;2617;51.006;12.436;2022-07-23T07:07:38;6.80;;;6.10;;
5195;SDS011;2617;51.006;12.436;2022-07-23T07:12:41;6.20;;;5.50;;
5195;SDS011;2617;51.006;12.436;2022-07-23T07:17:44;8.18;;;6.22;;
5195;SDS011;2617;51.006;12.436;2022-07-23T07:22:47;8.07;;;6.60;;
5195;SDS011;2617;51.006;12.436;2022-07-23T07:27:49;10.20;;;7.00;;
5195;SDS011;2617;51.006;12.436;2022-07-23T07:32:51;6.82;;;6.00;;
5195;SDS011;2617;51.006;12.436;2022-07-23T07:37:54;13.00;;;6.77;;
5195;SDS011;2617;51.006;12.436;2022-07-23T07:42:56;12.17;;;6.10;;
5195;SDS011;2617;51.006;12.436;2022-07-23T07:47:59;11.00;;;6.87;;
5195;SDS011;2617;51.006;12.436;2022-07-23T07:53:01;8.43;;;5.90;;
5195;SDS011;2617;51.006;12.436;2022-07-23T07:58:04;11.07;;;6.00;;
5195;SDS011;2617;51.006;12.436;2022-07-23T08:03:06;9.93;;;6.10;;
5195;SDS011;2617;51.006;12.436;2022-07-23T08:08:08;7.33;;;6.57;;
5195;SDS011;2617;51.006;12.436;2022-07-23T08:13:13;12.80;;;6.60;;
5195;SDS011;2617;51.006;12.436;2022-07-23T08:18:15;7.78;;;6.10;;
5195;SDS011;2617;51.006;12.436;2022-07-23T08:23:17;9.90;;;5.90;;
5195;SDS011;2617;51.006;12.436;2022-07-23T08:28:20;7.68;;;6.05;;
5195;SDS011;2617;51.006;12.436;2022-07-23T08:33:23;9.43;;;6.17;;
5195;SDS011;2617;51.006;12.436;2022-07-23T08:38:25;16.57;;;6.80;;
5195;SDS011;2617;51.006;12.436;2022-07-23T08:43:29;8.43;;;6.70;;
5195;SDS011;2617;51.006;12.436;2022-07-23T08:48:32;9.33;;;6.13;;
5195;SDS011;2617;51.006;12.436;2022-07-23T08:53:34;8.30;;;5.50;;
5195;SDS011;2617;51.006;12.436;2022-07-23T08:58:37;7.17;;;5.80;;
5195;SDS011;2617;51.006;12.436;2022-07-23T09:03:39;9.47;;;5.47;;
5195;SDS011;2617;51.006;12.436;2022-07-23T09:08:42;7.50;;;6.00;;
5195;SDS011;2617;51.006;12.436;2022-07-23T09:13:51;6.30;;;5.70;;
5195;SDS011;2617;51.006;12.436;2022-07-23T09:18:54;6.25;;;5.47;;
5195;SDS011;2617;51.006;12.436;2022-07-23T09:23:59;6.18;;;5.57;;
5195;SDS011;2617;51.006;12.436;2022-07-23T09:34:22;9.13;;;7.30;;
5195;SDS011;2617;51.006;12.436;2022-07-23T09:39:31;16.53;;;8.17;;
5195;SDS011;2617;51.006;12.436;2022-07-23T09:44:32;9.90;;;8.40;;
5195;SDS011;2617;51.006;12.436;2022-07-23T09:49:34;10.13;;;9.10;;
5195;SDS011;2617;51.006;12.436;2022-07-23T09:54:38;10.93;;;8.40;;
5195;SDS011;2617;51.006;12.436;2022-07-23T09:59:40;10.53;;;8.80;;
5195;SDS011;2617;51.006;12.436;2022-07-23T10:04:42;10.33;;;9.33;;
5195;SDS011;2617;51.006;12.436;2022-07-23T10:09:44;11.00;;;9.57;;
5195;SDS011;2617;51.006;12.436;2022-07-23T10:14:47;10.73;;;7.90;;
5195;SDS011;2617;51.006;12.436;2022-07-23T10:19:49;14.23;;;8.47;;
5195;SDS011;2617;51.006;12.436;2022-07-23T10:24:53;18.93;;;8.73;;
5195;SDS011;2617;51.006;12.436;2022-07-23T10:30:04;9.10;;;8.20;;
5195;SDS011;2617;51.006;12.436;2022-07-23T10:35:13;10.33;;;9.33;;
5195;SDS011;2617;51.006;12.436;2022-07-23T10:40:54;11.40;;;10.30;;
5195;SDS011;2617;51.006;12.436;2022-07-23T10:51:18;13.30;;;10.13;;
5195;SDS011;2617;51.006;12.436;2022-07-23T11:01:51;12.43;;;9.30;;
5195;SDS011;2617;51.006;12.436;2022-07-23T11:07:08;9.70;;;7.43;;
5195;SDS011;2617;51.006;12.436;2022-07-23T11:17:38;13.87;;;9.10;;
5195;SDS011;2617;51.006;12.436;2022-07-23T11:23:03;12.18;;;8.90;;
5195;SDS011;2617;51.006;12.436;2022-07-23T11:28:11;12.88;;;10.75;;
5195;SDS011;2617;51.006;12.436;2022-07-23T11:33:16;13.53;;;10.97;;
5195;SDS011;2617;51.006;12.436;2022-07-23T11:38:19;14.87;;;13.30;;
5195;SDS011;2617;51.006;12.436;2022-07-23T11:43:22;19.10;;;17.10;;
5195;SDS011;2617;51.006;12.436;2022-07-23T11:48:26;17.87;;;15.97;;
5195;SDS011;2617;51.006;12.436;2022-07-23T11:53:30;20.50;;;18.40;;
5195;SDS011;2617;51.006;12.436;2022-07-23T11:58:33;21.13;;;17.30;;
5195;SDS011;2617;51.006;12.436;2022-07-23T12:03:36;23.53;;;19.90;;
5195;SDS011;2617;51.006;12.436;2022-07-23T12:08:41;27.23;;;21.40;;
5195;SDS011;2617;51.006;12.436;2022-07-23T12:13:44;24.43;;;21.07;;
5195;SDS011;2617;51.006;12.436;2022-07-23T12:18:46;24.90;;;21.50;;
5195;SDS011;2617;51.006;12.436;2022-07-23T12:23:48;22.97;;;19.70;;
5195;SDS011;2617;51.006;12.436;2022-07-23T12:28:51;27.43;;;21.50;;
5195;SDS011;2617;51.006;12.436;2022-07-23T12:33:53;23.77;;;20.70;;
5195;SDS011;2617;51.006;12.436;2022-07-23T12:38:56;22.07;;;19.47;;
5195;SDS011;2617;51.006;12.436;2022-07-23T12:43:58;22.67;;;19.15;;
5195;SDS011;2617;51.006;12.436;2022-07-23T12:49:01;23.80;;;19.93;;
5195;SDS011;2617;51.006;12.436;2022-07-23T12:54:05;18.90;;;16.10;;
5195;SDS011;2617;51.006;12.436;2022-07-23T12:59:08;20.23;;;18.12;;
5195;SDS011;2617;51.006;12.436;2022-07-23T13:04:12;23.17;;;20.63;;
5195;SDS011;2617;51.006;12.436;2022-07-23T13:09:16;24.50;;;21.90;;
5195;SDS011;2617;51.006;12.436;2022-07-23T13:14:19;27.07;;;21.63;;
5195;SDS011;2617;51.006;12.436;2022-07-23T13:19:21;25.17;;;20.20;;
5195;SDS011;2617;51.006;12.436;2022-07-23T13:24:23;28.05;;;20.20;;
5195;SDS011;2617;51.006;12.436;2022-07-23T13:29:26;23.00;;;19.93;;
5195;SDS011;2617;51.006;12.436;2022-07-23T13:34:28;23.97;;;18.57;;
5195;SDS011;2617;51.006;12.436;2022-07-23T13:39:31;22.10;;;17.60;;
5195;SDS011;2617;51.006;12.436;2022-07-23T13:44:34;20.40;;;18.00;;
5195;SDS011;2617;51.006;12.436;2022-07-23T13:49:37;20.75;;;16.90;;
5195;SDS011;2617;51.006;12.436;2022-07-23T13:54:40;19.33;;;16.90;;
5195;SDS011;2617;51.006;12.436;2022-07-23T13:59:42;15.63;;;14.10;;
5195;SDS011;2617;51.006;12.436;2022-07-23T14:04:45;16.53;;;14.30;;
5195;SDS011;2617;51.006;12.436;2022-07-23T14:09:47;17.20;;;14.73;;
5195;SDS011;2617;51.006;12.436;2022-07-23T14:14:50;13.55;;;12.25;;
5195;SDS011;2617;51.006;12.436;2022-07-23T14:19:52;15.33;;;12.10;;
5195;SDS011;2617;51.006;12.436;2022-07-23T14:24:56;12.30;;;11.00;;
5195;SDS011;2617;51.006;12.436;2022-07-23T14:30:00;13.00;;;11.00;;
5195;SDS011;2617;51.006;12.436;2022-07-23T14:35:03;10.80;;;9.70;;
5195;SDS011;2617;51.006;12.436;2022-07-23T14:40:06;10.40;;;9.30;;
5195;SDS011;2617;51.006;12.436;2022-07-23T14:45:09;11.60;;;10.03;;
5195;SDS011;2617;51.006;12.436;2022-07-23T14:50:12;10.20;;;9.10;;
5195;SDS011;2617;51.006;12.436;2022-07-23T14:55:14;9.97;;;8.97;;
5195;SDS011;2617;51.006;12.436;2022-07-23T15:00:17;11.30;;;9.80;;
5195;SDS011;2617;51.006;12.436;2022-07-23T15:05:21;10.07;;;8.55;;
5195;SDS011;2617;51.006;12.436;2022-07-23T15:10:23;10.03;;;8.40;;
5195;SDS011;2617;51.006;12.436;2022-07-23T15:15:26;8.60;;;7.80;;
5195;SDS011;2617;51.006;12.436;2022-07-23T15:20:30;9.32;;;7.85;;
5195;SDS011;2617;51.006;12.436;2022-07-23T15:25:32;10.30;;;8.67;;
5195;SDS011;2617;51.006;12.436;2022-07-23T15:30:35;9.07;;;7.40;;
5195;SDS011;2617;51.006;12.436;2022-07-23T15:35:38;8.38;;;7.57;;
5195;SDS011;2617;51.006;12.436;2022-07-23T15:40:40;8.90;;;7.90;;
5195;SDS011;2617;51.006;12.436;2022-07-23T15:45:43;8.60;;;7.33;;
5195;SDS011;2617;51.006;12.436;2022-07-23T15:50:45;7.40;;;6.70;;
5195;SDS011;2617;51.006;12.436;2022-07-23T15:55:47;10.43;;;7.90;;
5195;SDS011;2617;51.006;12.436;2022-07-23T16:00:51;8.90;;;8.00;;
5195;SDS011;2617;51.006;12.436;2022-07-23T16:05:54;8.17;;;7.30;;
5195;SDS011;2617;51.006;12.436;2022-07-23T16:10:57;13.93;;;7.63;;
5195;SDS011;2617;51.006;12.436;2022-07-23T16:16:00;8.77;;;6.87;;
5195;SDS011;2617;51.006;12.436;2022-07-23T16:21:02;7.50;;;6.80;;
5195;SDS011;2617;51.006;12.436;2022-07-23T16:26:06;11.40;;;7.60;;
5195;SDS011;2617;51.006;12.436;2022-07-23T16:31:08;8.20;;;7.40;;
5195;SDS011;2617;51.006;12.436;2022-07-23T16:36:11;7.60;;;6.80;;
5195;SDS011;2617;51.006;12.436;2022-07-23T16:41:13;12.33;;;7.13;;
5195;SDS011;2617;51.006;12.436;2022-07-23T16:46:15;7.40;;;6.57;;
5195;SDS011;2617;51.006;12.436;2022-07-23T16:51:19;11.37;;;7.67;;
5195;SDS011;2617;51.006;12.436;2022-07-23T16:56:22;11.60;;;7.02;;
5195;SDS011;2617;51.006;12.436;2022-07-23T17:01:25;8.03;;;7.23;;
5195;SDS011;2617;51.006;12.436;2022-07-23T17:06:28;8.50;;;6.78;;
5195;SDS011;2617;51.006;12.436;2022-07-23T17:11:30;8.90;;;7.97;;
5195;SDS011;2617;51.006;12.436;2022-07-23T17:16:33;14.52;;;6.90;;
5195;SDS011;2617;51.006;12.436;2022-07-23T17:21:35;7.20;;;6.30;;
5195;SDS011;2617;51.006;12.436;2022-07-23T17:26:38;6.93;;;6.23;;
5195;SDS011;2617;51.006;12.436;2022-07-23T17:31:40;7.83;;;6.60;;
5195;SDS011;2617;51.006;12.436;2022-07-23T17:36:43;7.80;;;7.10;;
5195;SDS011;2617;51.006;12.436;2022-07-23T17:41:45;8.83;;;6.70;;
5195;SDS011;2617;51.006;12.436;2022-07-23T17:46:47;7.90;;;7.10;;
5195;SDS011;2617;51.006;12.436;2022-07-23T17:51:50;12.73;;;7.63;;
5195;SDS011;2617;51.006;12.436;2022-07-23T17:56:53;8.32;;;7.53;;
5195;SDS011;2617;51.006;12.436;2022-07-23T18:01:56;7.63;;;6.93;;
5195;SDS011;2617;51.006;12.436;2022-07-23T18:06:58;7.78;;;7.03;;
5195;SDS011;2617;51.006;12.436;2022-07-23T18:12:01;8.43;;;6.05;;
5195;SDS011;2617;51.006;12.436;2022-07-23T18:17:03;7.97;;;7.17;;
5195;SDS011;2617;51.006;12.436;2022-07-23T18:22:06;11.70;;;7.47;;
5195;SDS011;2617;51.006;12.436;2022-07-23T18:27:08;8.87;;;7.33;;
5195;SDS011;2617;51.006;12.436;2022-07-23T18:32:10;8.10;;;7.13;;
5195;SDS011;2617;51.006;12.436;2022-07-23T18:37:13;7.43;;;6.73;;
5195;SDS011;2617;51.006;12.436;2022-07-23T18:42:15;8.17;;;7.37;;
5195;SDS011;2617;51.006;12.436;2022-07-23T18:47:18;7.83;;;7.03;;
5195;SDS011;2617;51.006;12.436;2022-07-23T18:52:20;8.70;;;6.93;;
5195;SDS011;2617;51.006;12.436;2022-07-23T18:57:24;10.56;;;6.86;;
5195;SDS011;2617;51.006;12.436;2022-07-23T19:02:26;13.23;;;7.10;;
5195;SDS011;2617;51.006;12.436;2022-07-23T19:07:29;9.73;;;7.03;;
5195;SDS011;2617;51.006;12.436;2022-07-23T19:12:32;8.83;;;7.30;;
5195;SDS011;2617;51.006;12.436;2022-07-23T19:17:35;8.77;;;7.47;;
5195;SDS011;2617;51.006;12.436;2022-07-23T19:22:37;11.33;;;8.17;;
5195;SDS011;2617;51.006;12.436;2022-07-23T19:27:40;11.03;;;7.37;;
5195;SDS011;2617;51.006;12.436;2022-07-23T19:32:43;11.20;;;7.23;;
5195;SDS011;2617;51.006;12.436;2022-07-23T19:37:46;10.20;;;8.00;;
5195;SDS011;2617;51.006;12.436;2022-07-23T19:42:48;18.17;;;7.23;;
5195;SDS011;2617;51.006;12.436;2022-07-23T19:47:51;11.27;;;8.47;;
5195;SDS011;2617;51.006;12.436;2022-07-23T19:52:54;11.83;;;7.20;;
5195;SDS011;2617;51.006;12.436;2022-07-23T19:57:57;10.70;;;8.10;;
5195;SDS011;2617;51.006;12.436;2022-07-23T20:02:59;12.68;;;7.93;;
5195;SDS011;2617;51.006;12.436;2022-07-23T20:08:02;10.30;;;8.07;;
5195;SDS011;2617;51.006;12.436;2022-07-23T20:13:06;13.30;;;7.35;;
5195;SDS011;2617;51.006;12.436;2022-07-23T20:18:08;9.02;;;7.32;;
5195;SDS011;2617;51.006;12.436;2022-07-23T20:23:11;9.43;;;6.03;;
5195;SDS011;2617;51.006;12.436;2022-07-23T20:28:13;7.53;;;6.73;;
5195;SDS011;2617;51.006;12.436;2022-07-23T20:33:17;7.73;;;6.93;;
5195;SDS011;2617;51.006;12.436;2022-07-23T20:38:19;7.00;;;6.33;;
5195;SDS011;2617;51.006;12.436;2022-07-23T20:43:22;6.03;;;5.43;;
5195;SDS011;2617;51.006;12.436;2022-07-23T20:48:24;7.50;;;5.23;;
5195;SDS011;2617;51.006;12.436;2022-07-23T20:53:27;6.43;;;5.70;;
5195;SDS011;2617;51.006;12.436;2022-07-23T20:58:29;8.13;;;5.77;;
5195;SDS011;2617;51.006;12.436;2022-07-23T21:03:32;6.67;;;5.30;;
5195;SDS011;2617;51.006;12.436;2022-07-23T21:08:34;11.40;;;6.80;;
5195;SDS011;2617;51.006;12.436;2022-07-23T21:13:38;6.53;;;4.90;;
5195;SDS011;2617;51.006;12.436;2022-07-23T21:18:40;6.33;;;5.00;;
5195;SDS011;2617;51.006;12.436;2022-07-23T21:23:44;7.90;;;5.07;;
5195;SDS011;2617;51.006;12.436;2022-07-23T21:28:47;4.23;;;3.60;;
5195;SDS011;2617;51.006;12.436;2022-07-23T21:33:49;5.50;;;3.40;;
5195;SDS011;2617;51.006;12.436;2022-07-23T21:38:51;10.57;;;4.07;;
5195;SDS011;2617;51.006;12.436;2022-07-23T21:43:55;6.33;;;4.67;;
5195;SDS011;2617;51.006;12.436;2022-07-23T21:48:57;4.73;;;4.10;;
5195;SDS011;2617;51.006;12.436;2022-07-23T21:54:00;5.40;;;4.90;;
5195;SDS011;2617;51.006;12.436;2022-07-23T21:59:03;7.50;;;6.30;;
5195;SDS011;2617;51.006;12.436;2022-07-23T22:04:06;13.87;;;10.60;;
5195;SDS011;2617;51.006;12.436;2022-07-23T22:09:08;17.37;;;12.90;;
5195;SDS011;2617;51.006;12.436;2022-07-23T22:14:11;13.23;;;10.87;;
5195;SDS011;2617;51.006;12.436;2022-07-23T22:19:14;11.90;;;9.50;;
5195;SDS011;2617;51.006;12.436;2022-07-23T22:24:17;10.50;;;8.53;;
5195;SDS011;2617;51.006;12.436;2022-07-23T22:29:19;11.40;;;7.97;;
5195;SDS011;2617;51.006;12.436;2022-07-23T22:34:23;10.47;;;8.37;;
5195;SDS011;2617;51.006;12.436;2022-07-23T22:39:25;8.80;;;7.60;;
5195;SDS011;2617;51.006;12.436;2022-07-23T22:44:27;10.27;;;7.20;;
5195;SDS011;2617;51.006;12.436;2022-07-23T22:49:30;10.73;;;6.60;;
5195;SDS011;2617;51.006;12.436;2022-07-23T22:54:32;18.03;;;7.50;;
5195;SDS011;2617;51.006;12.436;2022-07-23T22:59:35;8.30;;;7.50;;
5195;SDS011;2617;51.006;12.436;2022-07-23T23:04:38;8.07;;;6.90;;
5195;SDS011;2617;51.006;12.436;2022-07-23T23:09:40;8.30;;;6.40;;
5195;SDS011;2617;51.006;12.436;2022-07-23T23:14:42;9.60;;;7.27;;
5195;SDS011;2617;51.006;12.436;2022-07-23T23:19:45;8.50;;;7.50;;
5195;SDS011;2617;51.006;12.436;2022-07-23T23:24:48;10.60;;;7.47;;
5195;SDS011;2617;51.006;12.436;2022-07-23T23:29:50;8.00;;;7.07;;
5195;SDS011;2617;51.006;12.436;2022-07-23T23:34:53;8.93;;;7.10;;
5195;SDS011;2617;51.006;12.436;2022-07-23T23:39:55;8.10;;;7.30;;
5195;SDS011;2617;51.006;12.436;2022-07-23T23:44:58;9.00;;;7.18;;
5195;SDS011;2617;51.006;12.436;2022-07-23T23:50:01;10.57;;;7.40;;
5195;SDS011;2617;51.006;12.436;2022-07-23T23:55:03;14.27;;;6.27;;
